»·PEaware :: N9273T KAPV-KBFL

N9273T :: KAPV-KBFL

FLIGHT INFORMATION

Flight Status: Arrived
Operator: Privately registered:
United States
More flights under this callsign
Pilot: Jim L. (28297)
Aircraft: CESSNA 210 CENTURION
(C210)
More flights by this aircraft type
Origin: KAPV Apple Valley
United States
Destination: KBFL Meadows
United States
More flights between these airports :: More routes between these airports
Route:
File this flight plan on PilotEdge
Remarks: Alphabet Challenge ZLA
Altitude:
(Current/Filed)
8,500ft
Speed:
(Current/Filed)
140kts
Departed: 11-Jul-20 05:33 PM
Arrived: 11-Jul-20 06:33 PM
Distance/Time
Traveled:
105nm/1:00
Distance/Time
To Go:
Arrived

Flight Plot

Page will automatically refresh every two minutes.


Map Options




Map Legend


Flown Route
Filed Route
Departure Airport
Arrival Airport
Navaid (VOR, NDB)
Fix

Horizontal Profiles

Position Reports

Time Latitude Longitude Heading Altitude Ground
Speed
11-Jul-20 17:22 34.575952 -117.190468 89 3066ft 0kts
11-Jul-20 17:23 34.575952 -117.190468 89 3066ft 0kts
11-Jul-20 17:24 34.575952 -117.190468 89 3066ft 0kts
11-Jul-20 17:25 34.575952 -117.190468 89 3066ft 0kts
11-Jul-20 17:26 34.575952 -117.190468 89 3066ft 0kts
11-Jul-20 17:27 34.575952 -117.190468 89 3066ft 0kts
11-Jul-20 17:28 34.575935 -117.189378 89 3066ft 4kts
11-Jul-20 17:29 34.577091 -117.187590 12 3066ft 11kts
11-Jul-20 17:30 34.580936 -117.186267 17 3066ft 16kts
11-Jul-20 17:31 34.585555 -117.184633 14 3066ft 17kts
11-Jul-20 17:32 34.584641 -117.183619 198 3066ft 48kts
11-Jul-20 17:33 34.562376 -117.193348 207 3686ft 88kts
11-Jul-20 17:34 34.539949 -117.211708 229 4574ft 100kts
11-Jul-20 17:35 34.526608 -117.241669 247 5521ft 103kts
11-Jul-20 17:36 34.542655 -117.263834 349 6435ft 108kts
11-Jul-20 17:37 34.572202 -117.268763 348 7366ft 108kts
11-Jul-20 17:38 34.601918 -117.274401 344 8277ft 109kts
11-Jul-20 17:39 34.629624 -117.296480 294 8544ft 141kts
11-Jul-20 17:40 34.648512 -117.340059 303 8481ft 146kts
11-Jul-20 17:41 34.672526 -117.379579 301 8482ft 145kts
11-Jul-20 17:42 34.686230 -117.425772 282 8543ft 146kts
11-Jul-20 17:43 34.698098 -117.473411 290 8570ft 152kts
11-Jul-20 17:44 34.712561 -117.522417 288 8507ft 152kts
11-Jul-20 17:45 34.720900 -117.572751 281 8508ft 151kts
11-Jul-20 17:46 34.727566 -117.623044 276 8508ft 150kts
11-Jul-20 17:47 34.731704 -117.673905 275 8509ft 150kts
11-Jul-20 17:48 34.735826 -117.724757 275 8509ft 150kts
11-Jul-20 17:49 34.739953 -117.775567 275 8509ft 150kts
11-Jul-20 17:50 34.744081 -117.826272 275 8509ft 150kts
11-Jul-20 17:51 34.748203 -117.876809 275 8508ft 149kts
11-Jul-20 17:52 34.752285 -117.926820 276 8518ft 148kts
11-Jul-20 17:53 34.770225 -117.970955 305 8518ft 148kts
11-Jul-20 17:54 34.793685 -118.012218 303 8518ft 148kts
11-Jul-20 17:55 34.816239 -118.054436 302 8518ft 148kts
11-Jul-20 17:56 34.838544 -118.096602 302 8518ft 148kts
11-Jul-20 17:57 34.860862 -118.138849 302 8518ft 148kts
11-Jul-20 17:58 34.883195 -118.181174 302 8518ft 148kts
11-Jul-20 17:59 34.905515 -118.223523 302 8518ft 148kts
11-Jul-20 18:00 34.927761 -118.265783 302 8518ft 148kts
11-Jul-20 18:01 34.950008 -118.308109 302 8518ft 148kts
11-Jul-20 18:02 34.972248 -118.350464 302 8518ft 148kts
11-Jul-20 18:03 34.994534 -118.392954 302 8518ft 148kts
11-Jul-20 18:04 35.016751 -118.435364 302 8517ft 148kts
11-Jul-20 18:05 35.038982 -118.477852 302 8517ft 148kts
11-Jul-20 18:06 35.061218 -118.520400 302 8517ft 148kts
11-Jul-20 18:07 35.083420 -118.562935 302 8517ft 148kts
11-Jul-20 18:08 35.105642 -118.605451 303 8518ft 148kts
11-Jul-20 18:09 35.127824 -118.647966 302 8518ft 148kts
11-Jul-20 18:10 35.150865 -118.692262 302 8109ft 167kts
11-Jul-20 18:11 35.176361 -118.741336 302 7313ft 167kts
11-Jul-20 18:12 35.205751 -118.781567 314 6501ft 155kts
11-Jul-20 18:13 35.236159 -118.818333 314 5701ft 153kts
11-Jul-20 18:14 35.266433 -118.854688 314 4901ft 152kts
11-Jul-20 18:15 35.295486 -118.889484 313 4341ft 143kts
11-Jul-20 18:16 35.324410 -118.924238 313 3646ft 147kts
11-Jul-20 18:17 35.353685 -118.959490 313 2947ft 148kts
11-Jul-20 18:18 35.349593 -118.996752 191 2630ft 119kts
11-Jul-20 18:19 35.339891 -118.971347 34 2636ft 111kts
11-Jul-20 18:20 35.363158 -118.957244 94 2637ft 105kts
11-Jul-20 18:21 35.344386 -118.937945 210 2638ft 96kts
11-Jul-20 18:22 35.321178 -118.954503 209 2637ft 97kts
11-Jul-20 18:23 35.297598 -118.970784 209 2637ft 97kts
11-Jul-20 18:24 35.274935 -118.971021 107 2639ft 102kts
11-Jul-20 18:25 35.295513 -118.955584 357 2638ft 105kts
11-Jul-20 18:26 35.323934 -118.960759 335 2637ft 104kts
11-Jul-20 18:27 35.350564 -118.974888 334 2637ft 104kts
11-Jul-20 18:28 35.377288 -118.990075 322 2110ft 96kts
11-Jul-20 18:29 35.397222 -119.010789 312 1502ft 85kts
11-Jul-20 18:30 35.413736 -119.031528 309 1060ft 85kts
11-Jul-20 18:31 35.429832 -119.051325 311 581ft 79kts
11-Jul-20 18:32 35.436491 -119.057977 48 509ft 0kts
11-Jul-20 18:33 35.436491 -119.057977 48 509ft 0kts
11-Jul-20 18:34 35.436491 -119.057977 48 509ft 0kts
11-Jul-20 18:35 35.434058 -119.054252 136 509ft 27kts
11-Jul-20 18:36 35.431489 -119.049658 122 509ft 1kts
11-Jul-20 18:37 35.431489 -119.049657 122 509ft 0kts
11-Jul-20 18:38 35.431489 -119.049657 122 509ft 0kts
11-Jul-20 18:39 35.431489 -119.049657 122 509ft 0kts

Navigation Log

Ident Type
Flight plan parsing failed, navigation log unavailable